createdAt,value
2023-02-13T00:00:47.170Z,35.299999
2023-02-13T00:01:55.496Z,35.299999
2023-02-13T00:03:03.807Z,35.299999
2023-02-13T00:04:12.346Z,20.9
2023-02-13T00:05:20.679Z,20.9
2023-02-13T00:06:29.020Z,20.9
2023-02-13T00:07:37.536Z,31.799999
2023-02-13T00:08:45.855Z,31.799999
2023-02-13T00:09:54.182Z,31.799999
2023-02-13T00:11:02.715Z,39.400002
2023-02-13T00:12:11.037Z,39.400002
2023-02-13T00:13:19.360Z,39.400002
2023-02-13T00:14:27.898Z,55.599998
2023-02-13T00:15:36.239Z,55.599998
2023-02-13T00:16:44.540Z,55.599998
2023-02-13T00:17:53.061Z,60.200001
2023-02-13T00:19:01.394Z,60.200001
2023-02-13T00:20:09.700Z,60.200001
2023-02-13T00:21:18.229Z,44
2023-02-13T00:22:26.586Z,44
2023-02-13T00:23:34.872Z,44
2023-02-13T00:24:43.421Z,35.299999
2023-02-13T00:25:51.751Z,35.299999
2023-02-13T00:27:00.070Z,35.299999
2023-02-13T00:28:08.634Z,18.200001
2023-02-13T00:29:16.918Z,18.200001
2023-02-13T00:30:25.246Z,18.200001
2023-02-13T00:31:33.909Z,20.700001
2023-02-13T00:32:42.097Z,20.700001
2023-02-13T00:33:50.420Z,20.700001
2023-02-13T00:34:58.968Z,21.9
2023-02-13T00:36:07.274Z,21.9
2023-02-13T00:37:15.604Z,21.9
2023-02-13T00:38:24.172Z,17.1
2023-02-13T00:39:32.467Z,17.1
2023-02-13T00:40:40.804Z,17.1
2023-02-13T00:41:49.341Z,12.3
2023-02-13T00:42:57.649Z,12.3
2023-02-13T00:44:05.956Z,12.3
2023-02-13T00:45:14.500Z,18.200001
2023-02-13T00:46:22.871Z,18.200001
2023-02-13T00:47:31.121Z,18.200001
2023-02-13T00:48:39.682Z,24.4
2023-02-13T00:49:48.009Z,24.4
2023-02-13T00:50:56.598Z,24.4
2023-02-13T00:52:04.841Z,27
2023-02-13T00:53:13.166Z,27
2023-02-13T00:54:21.518Z,27
2023-02-13T00:55:30.042Z,15.3
2023-02-13T00:56:38.375Z,15.3
2023-02-13T00:57:46.682Z,15.3
2023-02-13T00:58:55.229Z,34.900002
2023-02-13T01:00:03.543Z,34.900002
2023-02-13T01:01:11.967Z,34.900002
2023-02-13T01:02:20.400Z,26.200001
2023-02-13T01:03:28.788Z,26.200001
2023-02-13T01:04:37.065Z,26.200001
2023-02-13T01:05:45.597Z,18.5
2023-02-13T01:06:53.915Z,18.5
2023-02-13T01:08:02.241Z,18.5
2023-02-13T01:09:10.766Z,28
2023-02-13T01:10:19.119Z,28
2023-02-13T01:11:27.425Z,28
2023-02-13T01:12:35.954Z,35.299999
2023-02-13T01:13:44.270Z,35.299999
2023-02-13T01:14:52.620Z,35.299999
2023-02-13T01:16:01.189Z,33.900002
2023-02-13T01:17:09.470Z,33.900002
2023-02-13T01:18:17.803Z,33.900002
2023-02-13T01:19:26.347Z,26.799999
2023-02-13T01:20:34.666Z,26.799999
2023-02-13T01:21:42.997Z,26.799999
2023-02-13T01:22:51.540Z,29.4
2023-02-13T01:23:59.820Z,29.4
2023-02-13T01:25:08.152Z,29.4
2023-02-13T01:26:16.709Z,31.9
2023-02-13T01:27:25.004Z,31.9
2023-02-13T01:28:33.401Z,31.9
2023-02-13T01:29:41.869Z,22
2023-02-13T01:30:50.229Z,22
2023-02-13T01:31:58.547Z,22
2023-02-13T01:33:07.049Z,27.5
2023-02-13T01:34:15.358Z,27.5
2023-02-13T01:35:23.712Z,27.5
2023-02-13T01:36:32.214Z,40
2023-02-13T01:37:40.550Z,40
2023-02-13T01:38:48.908Z,40
2023-02-13T01:39:57.412Z,34.900002
2023-02-13T01:41:05.727Z,34.900002
2023-02-13T01:42:14.100Z,34.900002
2023-02-13T01:43:22.587Z,20.9
2023-02-13T01:44:30.911Z,20.9
2023-02-13T01:45:39.250Z,20.9
2023-02-13T01:46:47.833Z,23.799999
2023-02-13T01:47:56.096Z,23.799999
2023-02-13T01:49:04.414Z,23.799999
2023-02-13T01:50:12.948Z,22.9
2023-02-13T01:51:21.293Z,22.9
2023-02-13T01:52:29.611Z,22.9
2023-02-13T01:53:38.148Z,21.299999
2023-02-13T01:54:46.463Z,21.299999
2023-02-13T01:55:54.797Z,21.299999
2023-02-13T01:57:03.345Z,22.4
2023-02-13T01:58:11.690Z,22.4
2023-02-13T01:59:19.994Z,22.4
2023-02-13T02:00:28.522Z,18.9
2023-02-13T02:01:36.929Z,18.9
2023-02-13T02:02:45.214Z,18.9
2023-02-13T02:03:53.692Z,12.8
2023-02-13T02:05:02.024Z,12.8
2023-02-13T02:06:10.343Z,12.8
2023-02-13T02:07:18.861Z,15.8
2023-02-13T02:08:27.171Z,15.8
2023-02-13T02:09:35.492Z,15.8
2023-02-13T02:10:44.035Z,15.1
2023-02-13T02:11:52.359Z,15.1
2023-02-13T02:13:00.670Z,15.1
2023-02-13T02:14:09.225Z,9.3
2023-02-13T02:15:17.533Z,9.3
2023-02-13T02:16:25.961Z,9.3
2023-02-13T02:17:34.388Z,1.8
2023-02-13T02:18:42.709Z,1.8
2023-02-13T02:19:51.032Z,1.8
2023-02-13T02:20:59.796Z,1.8
2023-02-13T02:22:07.892Z,1.8
2023-02-13T02:23:16.224Z,1.8
2023-02-13T02:24:24.761Z,1.7
2023-02-13T02:25:33.088Z,1.7
2023-02-13T02:26:41.403Z,1.7
2023-02-13T02:27:49.931Z,1.4
2023-02-13T02:28:58.256Z,1.4
2023-02-13T02:30:06.621Z,1.4
2023-02-13T02:31:15.222Z,2.7
2023-02-13T02:32:23.460Z,2.7
2023-02-13T02:33:31.790Z,2.7
2023-02-13T02:34:40.324Z,2.7
2023-02-13T02:35:48.666Z,2.7
2023-02-13T02:36:56.987Z,2.7
2023-02-13T02:38:05.519Z,9.8
2023-02-13T02:39:13.837Z,9.8
2023-02-13T02:40:22.172Z,9.8
2023-02-13T02:41:30.712Z,18.6
2023-02-13T02:42:39.023Z,18.6
2023-02-13T02:43:47.340Z,18.6
2023-02-13T02:44:55.879Z,22.200001
2023-02-13T02:46:04.225Z,22.200001
2023-02-13T02:47:12.517Z,22.200001
2023-02-13T02:48:21.055Z,15.5
2023-02-13T02:49:29.381Z,15.5
2023-02-13T02:50:37.700Z,15.5
2023-02-13T02:51:46.231Z,9.2
2023-02-13T02:52:54.564Z,9.2
2023-02-13T02:54:02.888Z,9.2
2023-02-13T02:55:11.413Z,8.4
2023-02-13T02:56:19.754Z,8.4
2023-02-13T02:57:28.080Z,8.4
2023-02-13T02:58:36.614Z,8.6
2023-02-13T02:59:44.930Z,8.6
2023-02-13T03:00:53.349Z,8.6
2023-02-13T03:02:01.826Z,6.3
2023-02-13T03:03:10.130Z,6.3
2023-02-13T03:04:18.482Z,6.3
2023-02-13T03:05:26.975Z,5.2
2023-02-13T03:06:35.308Z,5.2
2023-02-13T03:07:43.639Z,5.2
2023-02-13T03:08:52.163Z,5.4
2023-02-13T03:10:00.497Z,5.4
2023-02-13T03:11:08.833Z,5.4
2023-02-13T03:12:17.364Z,2.3
2023-02-13T03:13:25.677Z,2.3
2023-02-13T03:14:34.000Z,2.3
2023-02-13T03:15:42.541Z,2.4
2023-02-13T03:16:50.858Z,2.4
2023-02-13T03:17:59.217Z,2.4
2023-02-13T03:19:07.717Z,2.6
2023-02-13T03:20:16.057Z,2.6
2023-02-13T03:21:24.379Z,2.6
2023-02-13T03:22:32.913Z,2.6
2023-02-13T03:23:41.231Z,2.6
2023-02-13T03:24:49.558Z,2.6
2023-02-13T03:25:58.102Z,2.5
2023-02-13T03:27:06.427Z,2.5
2023-02-13T03:28:14.777Z,2.5
2023-02-13T03:29:23.273Z,2.6
2023-02-13T03:30:31.629Z,2.6
2023-02-13T03:31:39.984Z,2.6
2023-02-13T03:32:48.457Z,3
2023-02-13T03:33:56.808Z,3
2023-02-13T03:35:05.096Z,3
2023-02-13T03:36:13.627Z,2.7
2023-02-13T03:37:21.952Z,2.7
2023-02-13T03:38:30.293Z,2.7
2023-02-13T03:39:38.820Z,3.3
2023-02-13T03:40:47.159Z,3.3
2023-02-13T03:41:55.494Z,3.3
2023-02-13T03:43:04.008Z,3.1
2023-02-13T03:44:12.358Z,3.1
2023-02-13T03:45:20.665Z,3.1
2023-02-13T03:46:29.223Z,3.2
2023-02-13T03:47:37.539Z,3.2
2023-02-13T03:48:45.856Z,3.2
2023-02-13T03:49:54.418Z,4
2023-02-13T03:51:02.725Z,4
2023-02-13T03:52:11.039Z,4
2023-02-13T03:53:19.560Z,3.8
2023-02-13T03:54:27.881Z,3.8
2023-02-13T03:55:36.201Z,3.8
2023-02-13T03:56:44.773Z,4.2
2023-02-13T03:57:53.078Z,4.2
2023-02-13T03:59:01.415Z,4.2
2023-02-13T04:00:09.925Z,4.2
2023-02-13T04:01:18.362Z,4.2
2023-02-13T04:02:26.661Z,4.2
2023-02-13T04:03:35.122Z,3.8
2023-02-13T04:04:43.433Z,3.8
2023-02-13T04:05:51.792Z,3.8
2023-02-13T04:07:00.291Z,4.3
2023-02-13T04:08:08.638Z,4.3
2023-02-13T04:09:16.987Z,4.3
2023-02-13T04:10:25.480Z,5.1
2023-02-13T04:11:33.819Z,5.1
2023-02-13T04:12:42.147Z,5.1
2023-02-13T04:13:50.663Z,4.6
2023-02-13T04:14:58.980Z,4.6
2023-02-13T04:16:07.298Z,4.6
2023-02-13T04:17:15.830Z,4.5
2023-02-13T04:18:24.165Z,4.5
2023-02-13T04:19:32.491Z,4.5
2023-02-13T04:20:41.017Z,4.2
2023-02-13T04:21:49.380Z,4.2
2023-02-13T04:22:57.673Z,4.2
2023-02-13T04:24:06.209Z,4.2
2023-02-13T04:25:14.549Z,4.2
2023-02-13T04:26:22.893Z,4.2
2023-02-13T04:27:31.418Z,4.7
2023-02-13T04:28:39.902Z,4.7
2023-02-13T04:29:48.069Z,4.7
2023-02-13T04:30:56.970Z,5.5
2023-02-13T04:32:04.932Z,5.5
2023-02-13T04:33:13.248Z,5.5
2023-02-13T04:34:21.783Z,5
2023-02-13T04:35:30.095Z,5
2023-02-13T04:36:38.439Z,5
2023-02-13T04:37:46.992Z,4.1
2023-02-13T04:38:55.278Z,4.1
2023-02-13T04:40:03.585Z,4.1
2023-02-13T04:41:12.108Z,4.7
2023-02-13T04:42:20.448Z,4.7
2023-02-13T04:43:28.763Z,4.7
2023-02-13T04:44:37.290Z,5
2023-02-13T04:45:45.625Z,5
2023-02-13T04:46:53.964Z,5
2023-02-13T04:48:02.505Z,4.7
2023-02-13T04:49:10.814Z,4.7
2023-02-13T04:50:19.155Z,4.7
2023-02-13T04:51:27.682Z,5.7
2023-02-13T04:52:36.028Z,5.7
2023-02-13T04:53:44.374Z,5.7
2023-02-13T04:54:52.869Z,3.8
2023-02-13T04:56:01.208Z,3.8
2023-02-13T04:57:09.548Z,3.8
2023-02-13T04:58:18.076Z,4.4
2023-02-13T04:59:26.394Z,4.4
2023-02-13T05:00:34.712Z,4.4
2023-02-13T05:01:43.338Z,4.3
2023-02-13T05:02:51.553Z,4.3
2023-02-13T05:03:59.890Z,4.3
2023-02-13T05:05:08.437Z,5
2023-02-13T05:06:16.766Z,5
2023-02-13T05:07:25.095Z,5
2023-02-13T05:08:33.617Z,6.6
2023-02-13T05:09:41.975Z,6.6
2023-02-13T05:10:50.278Z,6.6
2023-02-13T05:11:58.817Z,6.1
2023-02-13T05:13:07.143Z,6.1
2023-02-13T05:14:15.462Z,6.1
2023-02-13T05:15:23.997Z,5.5
2023-02-13T05:16:32.327Z,5.5
2023-02-13T05:17:40.646Z,5.5
2023-02-13T05:18:49.176Z,4.6
2023-02-13T05:19:57.505Z,4.6
2023-02-13T05:21:05.829Z,4.6
2023-02-13T05:22:14.356Z,5.2
2023-02-13T05:23:22.679Z,5.2
2023-02-13T05:24:31.003Z,5.2
2023-02-13T05:25:39.570Z,4.2
2023-02-13T05:26:47.867Z,4.2
2023-02-13T05:27:56.194Z,4.2
2023-02-13T05:29:04.717Z,3.9
2023-02-13T05:30:13.045Z,3.9
2023-02-13T05:31:21.436Z,3.9
2023-02-13T05:32:29.905Z,4.2
2023-02-13T05:33:38.229Z,4.2
2023-02-13T05:34:46.565Z,4.2
2023-02-13T05:35:55.120Z,5.1
2023-02-13T05:37:03.458Z,5.1
2023-02-13T05:38:11.785Z,5.1
2023-02-13T05:39:20.316Z,5.6
2023-02-13T05:40:28.629Z,5.6
2023-02-13T05:41:36.988Z,5.6
2023-02-13T05:42:45.520Z,5.8
2023-02-13T05:43:53.850Z,5.8
2023-02-13T05:45:02.184Z,5.8
2023-02-13T05:46:10.764Z,5.6
2023-02-13T05:47:19.020Z,5.6
2023-02-13T05:48:27.342Z,5.6
2023-02-13T05:49:35.876Z,7
2023-02-13T05:50:44.213Z,7
2023-02-13T05:51:52.540Z,7
2023-02-13T05:53:01.063Z,5.8
2023-02-13T05:54:09.396Z,5.8
2023-02-13T05:55:17.712Z,5.8
2023-02-13T05:56:26.242Z,5.5
2023-02-13T05:57:34.905Z,5.5
2023-02-13T05:58:42.881Z,5.5
2023-02-13T05:59:51.403Z,5.3
2023-02-13T06:00:59.926Z,5.3
2023-02-13T06:02:08.086Z,5.3
2023-02-13T06:03:16.594Z,7.1
2023-02-13T06:04:24.917Z,7.1
2023-02-13T06:05:33.229Z,7.1
2023-02-13T06:06:41.753Z,16.200001
2023-02-13T06:07:50.142Z,16.200001
2023-02-13T06:08:58.541Z,16.200001
2023-02-13T06:10:07.068Z,18.9
2023-02-13T06:11:15.383Z,18.9
2023-02-13T06:12:23.734Z,18.9
2023-02-13T06:13:32.292Z,17.4
2023-02-13T06:14:40.594Z,17.4
2023-02-13T06:15:48.921Z,17.4
2023-02-13T06:16:57.426Z,13.2
2023-02-13T06:18:05.760Z,13.2
2023-02-13T06:19:14.898Z,13.2
2023-02-13T06:20:23.137Z,8.7
2023-02-13T06:21:31.476Z,8.7
2023-02-13T06:22:39.815Z,8.7
2023-02-13T06:23:48.353Z,8.9
2023-02-13T06:24:56.665Z,8.9
2023-02-13T06:26:05.009Z,8.9
2023-02-13T06:27:13.538Z,5.7
2023-02-13T06:28:21.903Z,5.7
2023-02-13T06:29:30.188Z,5.7
2023-02-13T06:30:38.715Z,5.5
2023-02-13T06:31:47.064Z,5.5
2023-02-13T06:32:55.363Z,5.5
2023-02-13T06:34:04.559Z,5.2
2023-02-13T06:35:12.888Z,5.2
2023-02-13T06:36:21.212Z,5.2
2023-02-13T06:37:29.759Z,5.1
2023-02-13T06:38:38.070Z,5.1
2023-02-13T06:39:46.432Z,5.1
2023-02-13T06:40:55.059Z,5.1
2023-02-13T06:42:03.348Z,5.1
2023-02-13T06:43:11.692Z,5.1
2023-02-13T06:44:20.215Z,4
2023-02-13T06:45:28.568Z,4
2023-02-13T06:46:36.872Z,4
2023-02-13T06:47:45.407Z,4.8
2023-02-13T06:48:53.736Z,4.8
2023-02-13T06:50:02.055Z,4.8
2023-02-13T06:51:10.612Z,5
2023-02-13T06:52:18.907Z,5
2023-02-13T06:53:27.251Z,5
2023-02-13T06:54:46.646Z,4.3
2023-02-13T06:55:44.108Z,4.3
2023-02-13T06:56:52.434Z,4.3
2023-02-13T06:58:00.971Z,7.2
2023-02-13T06:59:09.327Z,7.2
2023-02-13T07:00:17.621Z,7.2
2023-02-13T07:01:26.214Z,9.3
2023-02-13T07:02:34.491Z,9.3
2023-02-13T07:03:42.799Z,9.3
2023-02-13T07:04:51.337Z,7.5
2023-02-13T07:05:59.640Z,7.5
2023-02-13T07:07:07.960Z,7.5
2023-02-13T07:08:16.495Z,9.2
2023-02-13T07:09:24.826Z,9.2
2023-02-13T07:10:33.169Z,9.2
2023-02-13T07:11:41.692Z,12
2023-02-13T07:13:00.223Z,12
2023-02-13T07:13:58.379Z,12
2023-02-13T07:15:06.926Z,9.4
2023-02-13T07:16:15.327Z,9.4
2023-02-13T07:17:23.582Z,9.4
2023-02-13T07:18:32.098Z,7.1
2023-02-13T07:19:40.431Z,7.1
2023-02-13T07:20:48.761Z,7.1
2023-02-13T07:21:57.315Z,5.7
2023-02-13T07:23:05.652Z,5.7
2023-02-13T07:24:13.977Z,5.7
2023-02-13T07:25:22.501Z,6.7
2023-02-13T07:26:30.845Z,6.7
2023-02-13T07:27:40.251Z,6.7
2023-02-13T07:28:47.725Z,6.2
2023-02-13T07:29:56.044Z,6.2
2023-02-13T07:31:04.468Z,6.2
2023-02-13T07:32:12.905Z,6.4
2023-02-13T07:33:21.264Z,6.4
2023-02-13T07:34:29.565Z,6.4
2023-02-13T07:35:38.109Z,5.2
2023-02-13T07:36:46.448Z,5.2
2023-02-13T07:37:54.809Z,5.2
2023-02-13T07:39:03.355Z,4.8
2023-02-13T07:40:11.671Z,4.8
2023-02-13T07:41:20.021Z,4.8
2023-02-13T07:42:28.539Z,4.7
2023-02-13T07:43:36.899Z,4.7
2023-02-13T07:44:45.211Z,4.7
2023-02-13T07:45:53.742Z,6.1
2023-02-13T07:47:02.166Z,6.1
2023-02-13T07:48:10.384Z,6.1
2023-02-13T07:49:18.966Z,4.9
2023-02-13T07:50:27.279Z,4.9
2023-02-13T07:51:35.589Z,4.9
2023-02-13T07:52:44.130Z,5.6
2023-02-13T07:53:52.469Z,5.6
2023-02-13T07:55:00.808Z,5.6
2023-02-13T07:56:09.337Z,4.6
2023-02-13T07:57:17.694Z,4.6
2023-02-13T07:58:25.986Z,4.6
2023-02-13T07:59:34.534Z,3.4
2023-02-13T08:00:42.848Z,3.4
2023-02-13T08:01:51.245Z,3.4
2023-02-13T08:02:59.695Z,3.8
2023-02-13T08:04:08.125Z,3.8
2023-02-13T08:05:16.415Z,3.8
2023-02-13T08:06:24.909Z,3.7
2023-02-13T08:07:33.247Z,3.7
2023-02-13T08:08:41.558Z,3.7
2023-02-13T08:09:50.116Z,3.3
2023-02-13T08:10:58.431Z,3.3
2023-02-13T08:12:06.771Z,3.3
2023-02-13T08:13:15.283Z,4.7
2023-02-13T08:14:23.626Z,4.7
2023-02-13T08:15:31.962Z,4.7
2023-02-13T08:16:40.548Z,3.4
2023-02-13T08:17:48.817Z,3.4
2023-02-13T08:18:57.143Z,3.4
2023-02-13T08:20:05.663Z,3.7
2023-02-13T08:21:14.028Z,3.7
2023-02-13T08:22:22.312Z,3.7
2023-02-13T08:23:30.888Z,4.3
2023-02-13T08:24:39.204Z,4.3
2023-02-13T08:25:47.517Z,4.3
2023-02-13T08:26:56.177Z,3.4
2023-02-13T08:28:04.490Z,3.4
2023-02-13T08:29:12.732Z,3.4
2023-02-13T08:30:21.260Z,5.1
2023-02-13T08:31:29.701Z,5.1
2023-02-13T08:32:52.984Z,5.1
2023-02-13T08:33:46.457Z,4.5
2023-02-13T08:34:54.780Z,4.5
2023-02-13T08:36:04.080Z,4.5
2023-02-13T08:37:12.636Z,3.6
2023-02-13T08:38:20.943Z,3.6
2023-02-13T08:39:29.269Z,3.6
2023-02-13T08:40:37.843Z,4.3
2023-02-13T08:41:46.191Z,4.3
2023-02-13T08:42:55.872Z,4.3
2023-02-13T08:44:03.056Z,4.2
2023-02-13T08:45:11.369Z,4.2
2023-02-13T08:46:19.796Z,4.2
2023-02-13T08:47:28.279Z,3.5
2023-02-13T08:48:36.594Z,3.5
2023-02-13T08:49:44.946Z,3.5
2023-02-13T08:50:53.474Z,3.9
2023-02-13T08:52:01.793Z,3.9
2023-02-13T08:53:10.130Z,3.9
2023-02-13T08:54:18.663Z,3.5
2023-02-13T08:55:26.985Z,3.5
2023-02-13T08:56:35.306Z,3.5
2023-02-13T08:57:43.841Z,4.5
2023-02-13T08:58:52.158Z,4.5
2023-02-13T09:00:00.489Z,4.5
2023-02-13T09:01:09.122Z,2.9
2023-02-13T09:02:17.357Z,2.9
2023-02-13T09:03:25.666Z,2.9
2023-02-13T09:04:34.210Z,3.5
2023-02-13T09:05:42.513Z,3.5
2023-02-13T09:06:50.874Z,3.5
2023-02-13T09:07:59.447Z,4.4
2023-02-13T09:09:07.805Z,4.4
2023-02-13T09:10:16.098Z,4.4
2023-02-13T09:11:24.639Z,16.5
2023-02-13T09:12:32.993Z,16.5
2023-02-13T09:13:41.305Z,16.5
2023-02-13T09:14:52.485Z,9.6
2023-02-13T09:16:01.542Z,9.6
2023-02-13T09:17:12.327Z,9.6
2023-02-13T09:18:20.881Z,4
2023-02-13T09:19:29.224Z,4
2023-02-13T09:20:37.548Z,4
2023-02-13T09:21:46.075Z,3.8
2023-02-13T09:22:54.384Z,3.8
2023-02-13T09:24:02.726Z,3.8
2023-02-13T09:25:11.287Z,5.8
2023-02-13T09:26:20.605Z,5.8
2023-02-13T09:27:27.904Z,5.8
2023-02-13T09:28:36.511Z,7.7
2023-02-13T09:29:44.759Z,7.7
2023-02-13T09:30:53.145Z,7.7
2023-02-13T09:32:01.767Z,9.1
2023-02-13T09:33:09.951Z,9.1
2023-02-13T09:34:18.294Z,9.1
2023-02-13T09:35:26.813Z,8.2
2023-02-13T09:36:35.129Z,8.2
2023-02-13T09:37:43.447Z,8.2
2023-02-13T09:38:52.036Z,3.1
2023-02-13T09:40:00.328Z,3.1
2023-02-13T09:41:08.663Z,3.1
2023-02-13T09:42:17.194Z,3.1
2023-02-13T09:43:25.530Z,3.1
2023-02-13T09:44:35.091Z,3.1
2023-02-13T09:45:43.591Z,4.1
2023-02-13T09:46:51.919Z,4.1
2023-02-13T09:48:00.327Z,4.1
2023-02-13T09:49:08.845Z,3.6
2023-02-13T09:50:17.187Z,3.6
2023-02-13T09:51:25.506Z,3.6
2023-02-13T09:52:34.039Z,4
2023-02-13T09:53:42.370Z,4
2023-02-13T09:54:50.731Z,4
2023-02-13T09:55:59.417Z,3.3
2023-02-13T09:57:07.579Z,3.3
2023-02-13T09:58:15.878Z,3.3
2023-02-13T09:59:24.411Z,2.6
2023-02-13T10:00:32.785Z,2.6
2023-02-13T10:01:41.155Z,2.6
2023-02-13T10:02:49.639Z,2.1
2023-02-13T10:03:57.969Z,2.1
2023-02-13T10:05:06.381Z,2.1
2023-02-13T10:06:14.859Z,2.8
2023-02-13T10:07:23.257Z,2.8
2023-02-13T10:08:31.522Z,2.8
2023-02-13T10:09:40.057Z,3.1
2023-02-13T10:10:48.379Z,3.1
2023-02-13T10:11:56.708Z,3.1
2023-02-13T10:13:05.268Z,3.6
2023-02-13T10:14:13.644Z,3.6
2023-02-13T10:15:21.955Z,3.6
2023-02-13T10:16:30.499Z,3.5
2023-02-13T10:17:38.841Z,3.5
2023-02-13T10:18:47.168Z,3.5
2023-02-13T10:19:55.725Z,2.7
2023-02-13T10:21:04.033Z,2.7
2023-02-13T10:22:12.359Z,2.7
2023-02-13T10:23:20.921Z,4
2023-02-13T10:24:29.241Z,4
2023-02-13T10:25:37.578Z,4
2023-02-13T10:26:46.097Z,4.4
2023-02-13T10:27:54.433Z,4.4
2023-02-13T10:29:02.832Z,4.4
2023-02-13T10:30:11.293Z,4
2023-02-13T10:31:19.796Z,4
2023-02-13T10:32:28.005Z,4
2023-02-13T10:33:36.482Z,3.2
2023-02-13T10:34:44.800Z,3.2
2023-02-13T10:35:53.133Z,3.2
2023-02-13T10:37:01.687Z,3.7
2023-02-13T10:38:09.998Z,3.7
2023-02-13T10:39:18.316Z,3.7
2023-02-13T10:40:26.846Z,3.9
2023-02-13T10:41:35.174Z,3.9
2023-02-13T10:42:43.502Z,3.9
2023-02-13T10:43:52.023Z,5.1
2023-02-13T10:45:00.376Z,5.1
2023-02-13T10:46:08.739Z,5.1
2023-02-13T10:47:17.228Z,7.6
2023-02-13T10:48:26.875Z,7.6
2023-02-13T10:49:33.896Z,7.6
2023-02-13T10:50:42.441Z,4.9
2023-02-13T10:51:50.748Z,4.9
2023-02-13T10:52:59.081Z,4.9
2023-02-13T10:54:07.624Z,6.9
2023-02-13T10:55:15.949Z,6.9
2023-02-13T10:56:24.281Z,6.9
2023-02-13T10:57:32.808Z,7.5
2023-02-13T10:58:41.149Z,7.5
2023-02-13T10:59:49.466Z,7.5
2023-02-13T11:00:58.020Z,5.3
2023-02-13T11:02:06.334Z,5.3
2023-02-13T11:03:14.667Z,5.3
2023-02-13T11:04:23.280Z,4.2
2023-02-13T11:05:31.527Z,4.2
2023-02-13T11:06:39.846Z,4.2
2023-02-13T11:07:48.377Z,4
2023-02-13T11:08:56.710Z,4
2023-02-13T11:10:05.049Z,4
2023-02-13T11:11:13.618Z,3.9
2023-02-13T11:12:21.940Z,3.9
2023-02-13T11:13:30.265Z,3.9
2023-02-13T11:14:38.787Z,4.5
2023-02-13T11:15:47.138Z,4.5
2023-02-13T11:16:55.530Z,4.5
2023-02-13T11:18:04.032Z,3.6
2023-02-13T11:19:12.357Z,3.6
2023-02-13T11:20:20.700Z,3.6
2023-02-13T11:21:29.257Z,3.4
2023-02-13T11:22:37.570Z,3.4
2023-02-13T11:23:45.904Z,3.4
2023-02-13T11:24:54.429Z,6
2023-02-13T11:26:02.750Z,6
2023-02-13T11:27:11.098Z,6
2023-02-13T11:28:19.657Z,4
2023-02-13T11:29:27.964Z,4
2023-02-13T11:30:36.313Z,4
2023-02-13T11:31:45.046Z,4.9
2023-02-13T11:32:53.189Z,4.9
2023-02-13T11:34:01.500Z,4.9
2023-02-13T11:35:10.031Z,3.9
2023-02-13T11:36:18.392Z,3.9
2023-02-13T11:37:26.704Z,3.9
2023-02-13T11:38:35.263Z,4
2023-02-13T11:39:43.583Z,4
2023-02-13T11:40:51.926Z,4
2023-02-13T11:42:00.457Z,3.8
2023-02-13T11:43:08.786Z,3.8
2023-02-13T11:44:17.153Z,3.8
2023-02-13T11:45:25.650Z,3.9
2023-02-13T11:46:34.040Z,3.9
2023-02-13T11:47:42.331Z,3.9
2023-02-13T11:48:50.877Z,3.5
2023-02-13T11:49:59.180Z,3.5
2023-02-13T11:51:07.546Z,3.5
2023-02-13T11:52:16.054Z,4.7
2023-02-13T11:53:24.410Z,4.7
2023-02-13T11:54:32.719Z,4.7
2023-02-13T11:55:41.436Z,3.5
2023-02-13T11:57:03.916Z,3.5
2023-02-13T11:57:58.117Z,3.5
2023-02-13T11:59:06.718Z,4.2
2023-02-13T12:00:15.095Z,4.2
2023-02-13T12:01:23.315Z,4.2
2023-02-13T12:02:31.927Z,5.9
2023-02-13T12:03:40.251Z,5.9
2023-02-13T12:04:48.530Z,5.9
2023-02-13T12:05:57.258Z,3.8
2023-02-13T12:07:05.358Z,3.8
2023-02-13T12:08:13.673Z,3.8
2023-02-13T12:09:22.204Z,4.2
2023-02-13T12:10:30.551Z,4.2
2023-02-13T12:11:38.888Z,4.2
2023-02-13T12:12:47.420Z,4
2023-02-13T12:13:55.765Z,4
2023-02-13T12:15:04.271Z,4
2023-02-13T12:16:12.869Z,3.3
2023-02-13T12:17:31.122Z,3.3
2023-02-13T12:18:29.476Z,3.3
2023-02-13T12:19:38.014Z,3.9
2023-02-13T12:20:46.387Z,3.9
2023-02-13T12:21:54.678Z,3.9
2023-02-13T12:23:03.227Z,3.4
2023-02-13T12:24:11.570Z,3.4
2023-02-13T12:25:19.900Z,3.4
2023-02-13T12:26:28.446Z,4
2023-02-13T12:27:36.779Z,4
2023-02-13T12:28:45.138Z,4
2023-02-13T12:29:53.642Z,4.6
2023-02-13T12:31:02.307Z,4.6
2023-02-13T12:32:10.310Z,4.6
2023-02-13T12:33:18.841Z,3.2
2023-02-13T12:34:27.152Z,3.2
2023-02-13T12:35:35.499Z,3.2
2023-02-13T12:36:44.031Z,2.5
2023-02-13T12:37:52.337Z,2.5
2023-02-13T12:39:00.663Z,2.5
2023-02-13T12:40:09.199Z,3.2
2023-02-13T12:41:17.518Z,3.2
2023-02-13T12:42:25.864Z,3.2
2023-02-13T12:43:34.403Z,2.9
2023-02-13T12:44:42.717Z,2.9
2023-02-13T12:45:51.080Z,2.9
2023-02-13T12:46:59.590Z,3.3
2023-02-13T12:48:07.911Z,3.3
2023-02-13T12:49:16.241Z,3.3
2023-02-13T12:50:24.803Z,2.4
2023-02-13T12:51:33.885Z,2.4
2023-02-13T12:52:42.252Z,2.4
2023-02-13T12:53:50.775Z,3.4
2023-02-13T12:54:59.119Z,3.4
2023-02-13T12:56:07.462Z,3.4
2023-02-13T12:57:15.996Z,3.1
2023-02-13T12:58:24.335Z,3.1
2023-02-13T12:59:32.640Z,3.1
2023-02-13T13:00:41.198Z,2.8
2023-02-13T13:01:49.535Z,2.8
2023-02-13T13:02:57.845Z,2.8
2023-02-13T13:04:06.371Z,2.9
2023-02-13T13:05:14.702Z,2.9
2023-02-13T13:06:23.041Z,2.9
2023-02-13T13:07:31.579Z,3.2
2023-02-13T13:08:39.920Z,3.2
2023-02-13T13:09:48.236Z,3.2
2023-02-13T13:10:56.966Z,3.2
2023-02-13T13:12:05.099Z,3.2
2023-02-13T13:13:13.432Z,3.2
2023-02-13T13:14:21.982Z,2.9
2023-02-13T13:15:30.308Z,2.9
2023-02-13T13:16:38.702Z,2.9
2023-02-13T13:17:47.199Z,3.2
2023-02-13T13:18:55.514Z,3.2
2023-02-13T13:20:03.838Z,3.2
2023-02-13T13:21:12.393Z,3.6
2023-02-13T13:22:20.713Z,3.6
2023-02-13T13:23:29.943Z,3.6
2023-02-13T13:24:37.589Z,2.9
2023-02-13T13:25:45.888Z,2.9
2023-02-13T13:26:54.222Z,2.9
2023-02-13T13:28:02.762Z,2.5
2023-02-13T13:29:11.078Z,2.5
2023-02-13T13:30:19.457Z,2.5
2023-02-13T13:31:28.065Z,3.1
2023-02-13T13:32:36.275Z,3.1
2023-02-13T13:33:44.600Z,3.1
2023-02-13T13:34:53.124Z,3
2023-02-13T13:36:01.455Z,3
2023-02-13T13:37:11.526Z,3
2023-02-13T13:38:18.326Z,3.1
2023-02-13T13:39:26.667Z,3.1
2023-02-13T13:40:35.023Z,3.1
2023-02-13T13:41:43.550Z,2.7
2023-02-13T13:42:51.867Z,2.7
2023-02-13T13:44:00.210Z,2.7
2023-02-13T13:45:08.734Z,2.8
2023-02-13T13:46:17.132Z,2.8
2023-02-13T13:47:25.399Z,2.8
2023-02-13T13:48:33.921Z,3.2
2023-02-13T13:49:42.258Z,3.2
2023-02-13T13:50:50.614Z,3.2
2023-02-13T13:51:59.159Z,3.6
2023-02-13T13:53:07.479Z,3.6
2023-02-13T13:54:15.799Z,3.6
2023-02-13T13:55:24.349Z,3.3
2023-02-13T13:56:32.721Z,3.3
2023-02-13T13:57:41.031Z,3.3
2023-02-13T13:58:49.563Z,3.3
2023-02-13T13:59:57.880Z,3.3
2023-02-13T14:01:06.257Z,3.3
2023-02-13T14:02:14.795Z,3.9
2023-02-13T14:03:23.102Z,3.9
2023-02-13T14:04:31.431Z,3.9
2023-02-13T14:05:39.981Z,3
2023-02-13T14:06:48.324Z,3
2023-02-13T14:07:56.635Z,3
2023-02-13T14:09:05.186Z,3.8
2023-02-13T14:10:13.522Z,3.8
2023-02-13T14:11:21.863Z,3.8
2023-02-13T14:12:30.445Z,3.4
2023-02-13T14:13:38.725Z,3.4
2023-02-13T14:14:47.066Z,3.4
2023-02-13T14:15:55.709Z,3.8
2023-02-13T14:17:03.943Z,3.8
2023-02-13T14:18:12.275Z,3.8
2023-02-13T14:19:20.806Z,3.4
2023-02-13T14:20:29.130Z,3.4
2023-02-13T14:21:37.472Z,3.4
2023-02-13T14:22:46.004Z,5.1
2023-02-13T14:23:54.323Z,5.1
2023-02-13T14:25:02.650Z,5.1
2023-02-13T14:26:11.175Z,4.4
2023-02-13T14:27:19.511Z,4.4
2023-02-13T14:28:27.862Z,4.4
2023-02-13T14:29:36.372Z,4.1
2023-02-13T14:30:44.785Z,4.1
2023-02-13T15:05:14.035Z,0
2023-02-13T15:06:22.336Z,0
2023-02-13T15:07:30.759Z,0
2023-02-13T15:08:39.287Z,5.7
2023-02-13T15:09:47.654Z,5.7
2023-02-13T15:10:56.273Z,5.7
2023-02-13T15:12:04.656Z,4.2
2023-02-13T15:13:12.995Z,4.2
2023-02-13T15:14:21.324Z,4.2
2023-02-13T15:15:29.863Z,5.3
2023-02-13T15:16:38.177Z,5.3
2023-02-13T15:17:46.513Z,5.3
2023-02-13T15:18:55.029Z,5
2023-02-13T15:20:03.358Z,5
2023-02-13T15:21:11.709Z,5
2023-02-13T15:22:20.317Z,4.5
2023-02-13T15:23:28.728Z,4.5
2023-02-13T15:24:37.036Z,4.5
2023-02-13T15:25:45.594Z,4.8
2023-02-13T15:26:53.929Z,4.8
2023-02-13T15:28:02.292Z,4.8
2023-02-13T15:29:14.040Z,4.7
2023-02-13T15:30:19.233Z,4.7
2023-02-13T15:31:27.556Z,4.7
2023-02-13T15:32:36.012Z,5.6
2023-02-13T15:33:44.348Z,5.6
2023-02-13T15:34:52.690Z,5.6
2023-02-13T15:36:01.198Z,5.1
2023-02-13T15:37:09.571Z,5.1
2023-02-13T15:38:18.140Z,5.1
2023-02-13T15:39:26.704Z,4
2023-02-13T15:40:35.017Z,4
2023-02-13T15:41:43.357Z,4
2023-02-13T15:42:51.883Z,4.8
2023-02-13T15:44:00.210Z,4.8
2023-02-13T15:45:08.527Z,4.8
2023-02-13T15:46:17.133Z,4.5
2023-02-13T15:47:25.386Z,4.5
2023-02-13T15:48:33.716Z,4.5
2023-02-13T15:49:42.270Z,4.4
2023-02-13T15:50:50.600Z,4.4
2023-02-13T15:51:58.936Z,4.4
2023-02-13T15:53:07.529Z,5
2023-02-13T15:54:15.799Z,5
2023-02-13T15:55:24.134Z,5
2023-02-13T15:56:32.652Z,7
2023-02-13T15:57:40.973Z,7
2023-02-13T15:58:49.297Z,7
2023-02-13T15:59:57.812Z,5.4
2023-02-13T16:01:06.127Z,5.4
2023-02-13T16:02:14.566Z,5.4
2023-02-13T16:03:22.983Z,5.6
2023-02-13T16:04:31.304Z,5.6
2023-02-13T16:05:40.881Z,5.6